createdAt,value
2022-09-23T00:01:47.401Z,7.13
2022-09-23T00:04:14.044Z,7.10
2022-09-23T00:06:40.560Z,7.08
2022-09-23T00:09:07.240Z,7.05
2022-09-23T00:11:33.796Z,7.04
2022-09-23T00:14:01.827Z,7.02
2022-09-23T00:16:31.300Z,7.00
2022-09-23T00:18:58.239Z,6.98
2022-09-23T00:21:25.163Z,6.97
2022-09-23T00:23:51.809Z,6.95
2022-09-23T00:26:21.407Z,6.93
2022-09-23T00:28:49.227Z,6.92
2022-09-23T00:31:19.376Z,6.91
2022-09-23T00:33:46.145Z,6.89
2022-09-23T00:36:15.077Z,6.87
2022-09-23T00:38:42.156Z,6.85
2022-09-23T00:41:08.800Z,6.83
2022-09-23T00:43:40.303Z,6.81
2022-09-23T00:46:09.022Z,6.79
2022-09-23T00:48:39.638Z,6.75
2022-09-23T00:51:09.095Z,6.74
2022-09-23T00:53:36.027Z,6.72
2022-09-23T00:56:05.980Z,6.71
2022-09-23T00:58:36.204Z,6.68
2022-09-23T01:01:04.040Z,6.65
2022-09-23T01:03:31.063Z,6.62
2022-09-23T01:05:59.233Z,6.59
2022-09-23T01:08:27.618Z,6.57
2022-09-23T01:11:02.866Z,6.56
2022-09-23T01:13:35.893Z,6.56
2022-09-23T01:16:08.405Z,6.55
2022-09-23T01:18:42.416Z,6.53
2022-09-23T01:21:23.460Z,6.52
2022-09-23T01:24:25.560Z,6.50
2022-09-23T01:27:01.491Z,6.50
2022-09-23T01:30:06.705Z,6.47
2022-09-23T01:32:43.103Z,6.45
2022-09-23T01:35:20.041Z,6.43
2022-09-23T01:37:51.021Z,6.40
2022-09-23T01:40:23.342Z,6.38
2022-09-23T01:42:56.139Z,6.35
2022-09-23T01:45:29.602Z,6.33
2022-09-23T01:48:01.811Z,6.29
2022-09-23T01:50:32.993Z,6.27
2022-09-23T01:53:05.073Z,6.26
2022-09-23T01:55:36.374Z,6.24
2022-09-23T01:58:07.413Z,6.23
2022-09-23T02:00:39.225Z,6.19
2022-09-23T02:03:13.042Z,6.17
2022-09-23T02:05:44.808Z,6.16
2022-09-23T02:08:17.213Z,6.14
2022-09-23T02:10:47.287Z,6.12
2022-09-23T02:13:19.849Z,6.10
2022-09-23T02:15:52.861Z,6.08
2022-09-23T02:18:24.326Z,6.06
2022-09-23T02:20:55.648Z,6.05
2022-09-23T02:23:27.509Z,6.03
2022-09-23T02:25:58.014Z,6.02
2022-09-23T02:28:32.181Z,6.01
2022-09-23T02:31:07.119Z,6.00
2022-09-23T02:33:39.853Z,5.98
2022-09-23T02:36:12.374Z,5.98
2022-09-23T02:38:43.662Z,5.95
2022-09-23T02:41:15.066Z,5.93
2022-09-23T02:43:47.633Z,5.92
2022-09-23T02:46:15.169Z,5.90
2022-09-23T02:48:46.553Z,5.89
2022-09-23T02:51:13.503Z,5.87
2022-09-23T02:53:40.177Z,5.85
2022-09-23T02:56:14.666Z,5.84
2022-09-23T02:58:41.582Z,5.82
2022-09-23T03:01:18.573Z,5.82
2022-09-23T03:03:55.766Z,5.79
2022-09-23T03:06:30.421Z,5.77
2022-09-23T03:09:02.460Z,5.75
2022-09-23T03:11:29.113Z,5.75
2022-09-23T03:14:05.396Z,5.74
2022-09-23T03:16:39.762Z,5.72
2022-09-23T03:19:19.620Z,5.70
2022-09-23T03:21:53.094Z,5.65
2022-09-23T03:24:20.282Z,5.62
2022-09-23T03:26:48.605Z,5.61
2022-09-23T03:29:18.447Z,5.59
2022-09-23T03:31:45.205Z,5.57
2022-09-23T03:34:16.191Z,5.55
2022-09-23T03:36:49.202Z,5.53
2022-09-23T03:39:26.739Z,5.50
2022-09-23T03:41:56.895Z,5.50
2022-09-23T03:44:23.612Z,5.48
2022-09-23T03:46:50.233Z,5.46
2022-09-23T03:49:24.185Z,5.47
2022-09-23T03:51:50.798Z,5.45
2022-09-23T03:54:17.439Z,5.44
2022-09-23T03:56:43.990Z,5.43
2022-09-23T03:59:10.688Z,5.42
2022-09-23T04:01:37.328Z,5.41
2022-09-23T04:04:03.953Z,5.41
2022-09-23T04:06:31.951Z,5.40
2022-09-23T04:08:58.676Z,5.38
2022-09-23T04:11:25.288Z,5.37
2022-09-23T04:13:51.867Z,5.35
2022-09-23T04:16:18.526Z,5.34
2022-09-23T04:18:45.106Z,5.32
2022-09-23T04:21:11.777Z,5.30
2022-09-23T04:23:39.704Z,5.29
2022-09-23T04:26:06.816Z,5.27
2022-09-23T04:28:33.962Z,5.26
2022-09-23T04:31:04.014Z,5.24
2022-09-23T04:33:30.640Z,5.25
2022-09-23T04:35:57.390Z,5.25
2022-09-23T04:38:23.981Z,5.23
2022-09-23T04:40:51.964Z,5.21
2022-09-23T04:43:18.637Z,5.22
2022-09-23T04:45:45.558Z,5.22
2022-09-23T04:48:12.526Z,5.21
2022-09-23T04:50:39.380Z,5.20
2022-09-23T04:53:06.312Z,5.19
2022-09-23T04:55:32.914Z,5.18
2022-09-23T04:58:00.811Z,5.19
2022-09-23T05:00:27.433Z,5.19
2022-09-23T05:02:54.167Z,5.19
2022-09-23T05:05:20.730Z,5.19
2022-09-23T05:07:47.938Z,5.19
2022-09-23T05:10:14.936Z,5.19
2022-09-23T05:12:41.519Z,5.17
2022-09-23T05:15:09.911Z,5.20
2022-09-23T05:17:36.545Z,5.20
2022-09-23T05:20:03.871Z,5.20
2022-09-23T05:22:30.666Z,5.22
2022-09-23T05:24:57.311Z,5.23
2022-09-23T05:27:23.946Z,5.25
2022-09-23T05:29:50.473Z,5.27
2022-09-23T05:32:18.473Z,5.27
2022-09-23T05:34:45.055Z,5.28
2022-09-23T05:37:11.706Z,5.29
2022-09-23T05:39:38.380Z,5.33
2022-09-23T05:42:05.428Z,5.35
2022-09-23T05:44:32.001Z,5.38
2022-09-23T05:46:58.621Z,5.42
2022-09-23T05:49:42.608Z,5.45
2022-09-23T05:52:09.439Z,5.50
2022-09-23T05:54:36.109Z,5.54
2022-09-23T05:57:04.878Z,5.58
2022-09-23T05:59:32.002Z,5.63
2022-09-23T06:01:58.651Z,5.67
2022-09-23T06:04:26.719Z,5.72
2022-09-23T06:06:53.307Z,5.77
2022-09-23T06:09:19.972Z,5.81
2022-09-23T06:11:46.680Z,5.87
2022-09-23T06:14:14.093Z,5.95
2022-09-23T06:16:40.673Z,6.02
2022-09-23T06:19:07.373Z,6.08
2022-09-23T06:21:37.841Z,6.16
2022-09-23T06:24:05.822Z,6.24
2022-09-23T06:26:32.855Z,6.35
2022-09-23T06:29:00.602Z,6.45
2022-09-23T06:31:27.437Z,6.56
2022-09-23T06:34:04.939Z,6.68
2022-09-23T06:36:43.023Z,6.80
2022-09-23T06:39:10.861Z,6.94
2022-09-23T06:41:37.455Z,7.07
2022-09-23T06:44:04.121Z,7.20
2022-09-23T06:46:30.777Z,7.34
2022-09-23T06:48:57.728Z,7.48
2022-09-23T06:51:24.304Z,7.62
2022-09-23T06:53:52.403Z,7.79
2022-09-23T06:56:18.917Z,7.92
2022-09-23T06:58:45.785Z,8.07
2022-09-23T07:01:15.001Z,8.22
2022-09-23T07:03:41.808Z,8.37
2022-09-23T07:06:08.999Z,8.51
2022-09-23T07:08:35.889Z,8.63
2022-09-23T07:11:06.568Z,8.76
2022-09-23T07:13:34.017Z,8.89
2022-09-23T07:16:01.890Z,9.02
2022-09-23T07:18:36.217Z,9.13
2022-09-23T07:21:08.655Z,9.26
2022-09-23T07:23:35.785Z,9.37
2022-09-23T07:26:04.818Z,9.48
2022-09-23T07:28:31.709Z,9.58
2022-09-23T07:31:03.612Z,9.68
2022-09-23T07:33:32.723Z,9.78
2022-09-23T07:35:59.881Z,9.87
2022-09-23T07:38:26.425Z,9.98
2022-09-23T07:40:53.045Z,10.11
2022-09-23T07:43:21.043Z,10.23
2022-09-23T07:45:47.671Z,10.33
2022-09-23T07:48:14.246Z,10.42
2022-09-23T07:50:40.816Z,10.54
2022-09-23T07:53:07.371Z,10.63
2022-09-23T07:55:34.456Z,10.71
2022-09-23T07:58:01.343Z,10.81
2022-09-23T08:00:29.505Z,10.91
2022-09-23T08:02:56.334Z,11.00
2022-09-23T08:05:23.304Z,11.10
2022-09-23T08:07:49.821Z,11.22
2022-09-23T08:10:16.573Z,11.33
2022-09-23T08:12:43.223Z,11.44
2022-09-23T08:15:10.317Z,11.52
2022-09-23T08:17:38.293Z,11.60
2022-09-23T08:20:06.146Z,11.67
2022-09-23T08:22:32.979Z,11.76
2022-09-23T08:24:59.613Z,11.85
2022-09-23T08:27:26.171Z,11.93
2022-09-23T08:29:52.726Z,12.00
2022-09-23T08:32:19.341Z,12.07
2022-09-23T08:34:47.443Z,12.15
2022-09-23T08:37:14.225Z,12.22
2022-09-23T08:39:40.918Z,12.31
2022-09-23T08:42:16.214Z,12.39
2022-09-23T08:44:48.028Z,12.48
2022-09-23T08:47:20.685Z,12.57
2022-09-23T08:49:58.655Z,12.64
2022-09-23T08:52:33.101Z,12.74
2022-09-23T08:54:59.921Z,12.82
2022-09-23T08:57:39.933Z,12.89
2022-09-23T09:00:07.635Z,12.97
2022-09-23T09:02:35.789Z,13.05
2022-09-23T09:05:08.653Z,13.12
2022-09-23T09:07:38.573Z,13.20
2022-09-23T09:10:15.073Z,13.27
2022-09-23T09:12:44.804Z,13.36
2022-09-23T09:15:14.201Z,13.43
2022-09-23T09:17:50.115Z,13.49
2022-09-23T09:20:23.644Z,13.57
2022-09-23T09:22:52.965Z,13.65
2022-09-23T09:25:25.138Z,13.76
2022-09-23T09:27:54.502Z,13.87
2022-09-23T09:30:21.619Z,13.97
2022-09-23T09:32:52.213Z,14.08
2022-09-23T09:35:27.212Z,14.20
2022-09-23T09:37:53.842Z,14.28
2022-09-23T09:40:20.606Z,14.37
2022-09-23T09:42:49.649Z,14.45
2022-09-23T09:45:26.026Z,14.54
2022-09-23T09:48:00.969Z,14.62
2022-09-23T09:50:47.820Z,14.74
2022-09-23T09:53:22.832Z,14.82
2022-09-23T09:56:04.332Z,14.92
2022-09-23T09:58:36.192Z,15.05
2022-09-23T10:01:05.549Z,15.18
2022-09-23T10:03:37.288Z,15.30
2022-09-23T10:06:16.873Z,15.44
2022-09-23T10:09:02.263Z,15.55
2022-09-23T10:11:29.801Z,15.66
2022-09-23T10:14:10.066Z,15.76
2022-09-23T10:16:36.873Z,15.85
2022-09-23T10:19:11.265Z,15.90
2022-09-23T10:21:39.321Z,16.00
2022-09-23T10:24:07.781Z,16.07
2022-09-23T10:26:42.040Z,16.17
2022-09-23T10:29:23.361Z,16.29
2022-09-23T10:31:50.150Z,16.39
2022-09-23T10:34:23.577Z,16.48
2022-09-23T10:36:55.709Z,16.59
2022-09-23T10:39:22.345Z,16.69
2022-09-23T10:42:03.622Z,16.78
2022-09-23T10:44:40.623Z,16.89
2022-09-23T10:47:15.556Z,16.97
2022-09-23T10:50:03.340Z,17.03
2022-09-23T10:52:44.691Z,17.07
2022-09-23T10:55:34.022Z,17.14
2022-09-23T10:58:22.570Z,17.22
2022-09-23T11:01:02.255Z,17.30
2022-09-23T11:03:55.223Z,17.39
2022-09-23T11:06:27.077Z,17.51
2022-09-23T11:09:09.500Z,17.63
2022-09-23T11:11:48.555Z,17.77
2022-09-23T11:14:44.024Z,17.88
2022-09-23T11:17:30.493Z,17.98
2022-09-23T11:20:29.383Z,18.03
2022-09-23T11:23:17.492Z,18.08
2022-09-23T11:25:52.094Z,18.07
2022-09-23T11:28:41.281Z,18.04
2022-09-23T11:31:19.322Z,18.05
2022-09-23T11:33:59.054Z,18.07
2022-09-23T11:36:32.436Z,18.13
2022-09-23T11:39:06.056Z,18.18
2022-09-23T11:41:40.363Z,18.26
2022-09-23T11:44:14.802Z,18.31
2022-09-23T11:46:46.741Z,18.37
2022-09-23T11:49:16.503Z,18.41
2022-09-23T11:51:56.140Z,18.48
2022-09-23T11:54:28.593Z,18.59
2022-09-23T11:57:01.221Z,18.70
2022-09-23T11:59:40.871Z,18.75
2022-09-23T12:02:21.407Z,18.79
2022-09-23T12:04:58.475Z,18.82
2022-09-23T12:07:31.127Z,18.85
2022-09-23T12:10:03.739Z,18.84
2022-09-23T12:12:39.542Z,18.80
2022-09-23T12:15:13.598Z,18.83
2022-09-23T12:17:56.695Z,18.89
2022-09-23T12:20:41.785Z,19.01
2022-09-23T12:23:25.516Z,19.09
2022-09-23T12:25:53.673Z,19.11
2022-09-23T12:28:26.615Z,19.13
2022-09-23T12:30:56.365Z,19.21
2022-09-23T12:33:25.680Z,19.32
2022-09-23T12:35:54.091Z,19.43
2022-09-23T12:38:25.737Z,19.46
2022-09-23T12:40:54.734Z,19.44
2022-09-23T12:43:31.636Z,19.43
2022-09-23T12:52:24.796Z,19.45
2022-09-23T12:54:55.458Z,19.50
2022-09-23T12:57:40.360Z,19.52
2022-09-23T13:00:25.679Z,19.53
2022-09-23T13:02:56.410Z,19.62
2022-09-23T13:05:25.180Z,19.71
2022-09-23T13:07:59.576Z,19.77
2022-09-23T13:10:30.873Z,19.86
2022-09-23T13:12:59.501Z,19.93
2022-09-23T13:15:31.996Z,19.98
2022-09-23T13:18:40.638Z,20.05
2022-09-23T13:21:17.529Z,20.10
2022-09-23T13:24:16.721Z,20.13
2022-09-23T13:26:45.744Z,20.15
2022-09-23T13:29:19.227Z,20.19
2022-09-23T13:31:47.457Z,20.23
2022-09-23T13:34:19.956Z,20.21
2022-09-23T13:36:48.350Z,20.16
2022-09-23T13:39:15.673Z,20.10
2022-09-23T13:41:45.306Z,20.02
2022-09-23T13:44:17.271Z,19.96
2022-09-23T13:46:49.451Z,19.93
2022-09-23T13:49:22.492Z,19.94
2022-09-23T13:51:50.815Z,19.95
2022-09-23T13:54:27.861Z,19.93
2022-09-23T13:56:54.957Z,19.96
2022-09-23T13:59:25.510Z,19.97
2022-09-23T14:02:04.890Z,20.00
2022-09-23T14:04:31.748Z,19.92
2022-09-23T14:06:58.603Z,19.85
2022-09-23T14:09:27.892Z,19.76
2022-09-23T14:11:56.457Z,19.67
2022-09-23T14:14:23.491Z,19.65
2022-09-23T14:16:51.638Z,19.66
2022-09-23T14:19:22.037Z,19.63
2022-09-23T14:21:49.851Z,19.61
2022-09-23T14:24:19.216Z,19.54
2022-09-23T14:26:48.776Z,19.53
2022-09-23T14:29:17.726Z,19.55
2022-09-23T14:31:51.428Z,19.53
2022-09-23T14:34:49.872Z,19.48
2022-09-23T14:37:26.755Z,19.42
2022-09-23T14:39:57.593Z,19.33
2022-09-23T14:42:24.526Z,19.26
2022-09-23T14:44:51.397Z,19.18
2022-09-23T14:47:18.276Z,19.13
2022-09-23T14:49:49.485Z,19.06
2022-09-23T14:52:17.269Z,19.02
2022-09-23T14:54:44.155Z,18.98
2022-09-23T14:57:28.406Z,18.93
2022-09-23T14:59:59.110Z,18.88
2022-09-23T15:02:34.973Z,18.84
2022-09-23T15:05:19.206Z,18.79
2022-09-23T15:07:52.559Z,18.76
2022-09-23T15:10:23.155Z,18.72
2022-09-23T15:12:51.596Z,18.68
2022-09-23T15:15:19.112Z,18.65
2022-09-23T15:17:46.587Z,18.61
2022-09-23T15:20:23.479Z,18.57
2022-09-23T15:22:52.157Z,18.51
2022-09-23T15:25:21.156Z,18.48
2022-09-23T15:27:59.605Z,18.42
2022-09-23T15:30:26.603Z,18.38
2022-09-23T15:32:53.234Z,18.34
2022-09-23T15:35:23.849Z,18.32
2022-09-23T15:37:50.755Z,18.27
2022-09-23T15:40:35.794Z,18.24
2022-09-23T15:43:17.992Z,18.21
2022-09-23T15:45:48.850Z,18.17
2022-09-23T15:48:17.773Z,18.12
2022-09-23T15:50:46.002Z,18.10
2022-09-23T15:53:15.591Z,18.05
2022-09-23T15:55:42.382Z,18.01
2022-09-23T15:58:09.080Z,17.99
2022-09-23T16:00:36.535Z,17.93
2022-09-23T16:03:04.611Z,17.92
2022-09-23T16:05:35.448Z,17.89
2022-09-23T16:08:08.728Z,17.86
2022-09-23T16:10:37.088Z,17.83
2022-09-23T16:13:06.329Z,17.80
2022-09-23T16:15:33.853Z,17.77
2022-09-23T16:18:00.930Z,17.74
2022-09-23T16:20:29.891Z,17.69
2022-09-23T16:22:59.585Z,17.67
2022-09-23T16:25:29.777Z,17.61
2022-09-23T16:27:57.566Z,17.57
2022-09-23T16:30:26.375Z,17.52
2022-09-23T16:32:55.250Z,17.47
2022-09-23T16:35:23.810Z,17.41
2022-09-23T16:37:51.734Z,17.34
2022-09-23T16:40:20.500Z,17.27
2022-09-23T16:42:49.479Z,17.19
2022-09-23T16:45:17.507Z,17.09
2022-09-23T16:47:45.108Z,16.99
2022-09-23T16:50:17.089Z,16.88
2022-09-23T16:52:44.601Z,16.79
2022-09-23T16:55:13.217Z,16.68
2022-09-23T16:57:40.716Z,16.57
2022-09-23T17:00:13.013Z,16.45
2022-09-23T17:02:40.000Z,16.33
2022-09-23T17:05:07.581Z,16.23
2022-09-23T17:07:34.500Z,16.12
2022-09-23T17:10:01.474Z,16.01
2022-09-23T17:12:31.036Z,15.92
2022-09-23T17:14:57.757Z,15.80
2022-09-23T17:17:26.210Z,15.70
2022-09-23T17:19:53.047Z,15.60
2022-09-23T17:22:20.043Z,15.50
2022-09-23T17:24:46.828Z,15.40
2022-09-23T17:27:14.896Z,15.28
2022-09-23T17:29:41.733Z,15.19
2022-09-23T17:32:08.602Z,15.11
2022-09-23T17:34:36.655Z,15.02
2022-09-23T17:37:03.693Z,14.90
2022-09-23T17:39:30.502Z,14.82
2022-09-23T17:41:58.973Z,14.71
2022-09-23T17:44:25.784Z,14.63
2022-09-23T17:46:52.949Z,14.53
2022-09-23T17:49:19.789Z,14.46
2022-09-23T17:51:48.049Z,14.40
2022-09-23T17:54:14.858Z,14.35
2022-09-23T17:56:41.933Z,14.30
2022-09-23T17:59:10.530Z,14.24
2022-09-23T18:01:37.497Z,14.19
2022-09-23T18:04:04.704Z,14.16
2022-09-23T18:06:32.683Z,14.12
2022-09-23T18:09:01.577Z,14.10
2022-09-23T18:11:31.167Z,14.05
2022-09-23T18:13:59.660Z,14.03
2022-09-23T18:16:29.226Z,14.00
2022-09-23T18:18:57.416Z,13.96
2022-09-23T18:21:25.999Z,13.93
2022-09-23T18:23:52.956Z,13.89
2022-09-23T18:26:23.492Z,13.86
2022-09-23T18:28:51.470Z,13.82
2022-09-23T18:31:18.921Z,13.79
2022-09-23T18:33:49.360Z,13.76
2022-09-23T18:36:16.300Z,13.72
2022-09-23T18:38:43.174Z,13.70
2022-09-23T18:41:09.808Z,13.67
2022-09-23T18:43:41.544Z,13.63
2022-09-23T18:46:12.989Z,13.59
2022-09-23T18:48:40.257Z,13.56
2022-09-23T18:51:08.116Z,13.53
2022-09-23T18:53:35.014Z,13.49
2022-09-23T18:56:05.445Z,13.46
2022-09-23T18:58:32.427Z,13.42
2022-09-23T19:01:05.280Z,13.38
2022-09-23T19:03:32.183Z,13.33
2022-09-23T19:06:06.097Z,13.28
2022-09-23T19:08:33.423Z,13.24
2022-09-23T19:11:01.815Z,13.19
2022-09-23T19:13:29.363Z,13.16
2022-09-23T19:16:00.869Z,13.10
2022-09-23T19:18:29.905Z,13.06
2022-09-23T19:20:57.470Z,13.01
2022-09-23T19:23:24.128Z,12.97
2022-09-23T19:25:51.032Z,12.95
2022-09-23T19:28:17.921Z,12.91
2022-09-23T19:30:44.824Z,12.88
2022-09-23T19:33:11.934Z,12.85
2022-09-23T19:35:47.257Z,12.83
2022-09-23T19:38:19.198Z,12.79
2022-09-23T19:40:49.756Z,12.76
2022-09-23T19:43:16.886Z,12.73
2022-09-23T19:45:43.871Z,12.70
2022-09-23T19:48:11.036Z,12.67
2022-09-23T19:50:38.920Z,12.66
2022-09-23T19:53:07.627Z,12.62
2022-09-23T19:55:35.422Z,12.61
2022-09-23T19:58:02.622Z,12.59
2022-09-23T20:00:29.594Z,12.58
2022-09-23T20:02:56.898Z,12.54
2022-09-23T20:05:23.808Z,12.51
2022-09-23T20:07:50.560Z,12.49
2022-09-23T20:10:18.677Z,12.46
2022-09-23T20:12:45.280Z,12.42
2022-09-23T20:15:12.050Z,12.39
2022-09-23T20:17:38.688Z,12.38
2022-09-23T20:20:05.931Z,12.35
2022-09-23T20:22:33.654Z,12.33
2022-09-23T20:25:00.597Z,12.31
2022-09-23T20:27:29.217Z,12.29
2022-09-23T20:29:55.793Z,12.27
2022-09-23T20:32:22.495Z,12.26
2022-09-23T20:34:49.211Z,12.24
2022-09-23T20:37:16.989Z,12.21
2022-09-23T20:39:44.483Z,12.19
2022-09-23T20:42:11.592Z,12.20
2022-09-23T20:44:39.680Z,12.18
2022-09-23T20:47:06.900Z,12.17
2022-09-23T20:49:33.511Z,12.13
2022-09-23T20:52:00.265Z,12.14
2022-09-23T20:54:26.863Z,12.11
2022-09-23T20:56:53.485Z,12.09
2022-09-23T20:59:20.165Z,12.08
2022-09-23T21:01:48.246Z,12.08
2022-09-23T21:04:15.142Z,12.06
2022-09-23T21:06:41.746Z,12.04
2022-09-23T21:09:08.372Z,12.02
2022-09-23T21:11:34.882Z,12.02
2022-09-23T21:14:02.131Z,12.01
2022-09-23T21:16:29.488Z,12.00
2022-09-23T21:18:59.004Z,12.00
2022-09-23T21:21:26.326Z,12.00
2022-09-23T21:23:52.845Z,11.98
2022-09-23T21:26:21.318Z,11.98
2022-09-23T21:28:49.823Z,11.97
2022-09-23T21:31:17.967Z,11.96
2022-09-23T21:33:44.630Z,11.96
2022-09-23T21:36:12.487Z,11.97
2022-09-23T21:38:39.363Z,11.96
2022-09-23T21:41:09.833Z,11.96
2022-09-23T21:43:38.410Z,11.95
2022-09-23T21:46:06.762Z,11.94
2022-09-23T21:48:34.808Z,11.94
2022-09-23T21:51:03.741Z,11.92
2022-09-23T21:53:33.656Z,11.92
2022-09-23T21:56:01.725Z,11.91
2022-09-23T21:58:28.873Z,11.91
2022-09-23T22:00:55.474Z,11.90
2022-09-23T22:03:22.337Z,11.90
2022-09-23T22:05:58.927Z,11.90
2022-09-23T22:08:25.498Z,11.89
2022-09-23T22:10:53.513Z,11.88
2022-09-23T22:13:20.236Z,11.87
2022-09-23T22:15:46.860Z,11.87
2022-09-23T22:18:13.447Z,11.86
2022-09-23T22:20:40.158Z,11.86
2022-09-23T22:23:06.783Z,11.85
2022-09-23T22:25:33.336Z,11.86
2022-09-23T22:28:01.731Z,11.85
2022-09-23T22:30:28.311Z,11.84
2022-09-23T22:32:55.308Z,11.83
2022-09-23T22:35:22.031Z,11.82
2022-09-23T22:37:48.602Z,11.81
2022-09-23T22:40:15.834Z,11.81
2022-09-23T22:42:43.504Z,11.81
2022-09-23T22:45:11.999Z,11.80
2022-09-23T22:47:40.695Z,11.77
2022-09-23T22:50:09.090Z,11.77
2022-09-23T22:52:35.677Z,11.76
2022-09-23T22:55:02.331Z,11.76
2022-09-23T22:57:31.596Z,11.75
2022-09-23T22:59:58.183Z,11.74
2022-09-23T23:02:26.272Z,11.74
2022-09-23T23:04:52.836Z,11.74
2022-09-23T23:07:20.675Z,11.74
2022-09-23T23:09:47.549Z,11.74
2022-09-23T23:12:14.249Z,11.73
2022-09-23T23:14:40.895Z,11.72
2022-09-23T23:17:07.500Z,11.71
2022-09-23T23:19:36.192Z,11.71
2022-09-23T23:22:03.021Z,11.70
2022-09-23T23:24:29.660Z,11.69
2022-09-23T23:26:56.407Z,11.68
2022-09-23T23:29:23.154Z,11.68
2022-09-23T23:31:50.436Z,11.69
2022-09-23T23:34:19.760Z,11.69
2022-09-23T23:36:48.714Z,11.68
2022-09-23T23:39:15.284Z,11.67
2022-09-23T23:41:42.154Z,11.67
2022-09-23T23:44:12.183Z,11.65
2022-09-23T23:46:38.968Z,11.64
2022-09-23T23:49:05.653Z,11.63
2022-09-23T23:51:32.231Z,11.62
2022-09-23T23:54:00.332Z,11.62
2022-09-23T23:56:27.447Z,11.62
2022-09-23T23:58:55.378Z,11.61
